createdAt,value
2019-01-17T00:00:28.656Z,99092.28
2019-01-17T00:02:18.984Z,99082.59
2019-01-17T00:04:07.964Z,99083.38
2019-01-17T00:06:02.180Z,99081.65
2019-01-17T00:08:14.332Z,99084.44
2019-01-17T00:10:07.497Z,99075.60
2019-01-17T00:12:04.878Z,99071.52
2019-01-17T00:14:01.412Z,99065.24
2019-01-17T00:15:58.734Z,99075.27
2019-01-17T00:17:43.575Z,99074.88
2019-01-17T00:19:30.888Z,99069.00
2019-01-17T00:21:21.083Z,99062.30
2019-01-17T00:23:07.378Z,99062.39
2019-01-17T00:25:00.356Z,99068.11
2019-01-17T00:26:43.754Z,99063.59
2019-01-17T00:28:36.903Z,99058.93
2019-01-17T00:30:34.147Z,99057.68
2019-01-17T00:32:37.244Z,99046.44
2019-01-17T00:34:35.516Z,99059.38
2019-01-17T00:36:20.128Z,99057.84
2019-01-17T00:38:23.004Z,99056.09
2019-01-17T00:40:07.792Z,99057.77
2019-01-17T00:42:06.587Z,99059.02
2019-01-17T00:43:59.741Z,99044.39
2019-01-17T00:45:49.393Z,99050.92
2019-01-17T00:47:46.564Z,99045.36
2019-01-17T00:49:40.411Z,99056.67
2019-01-17T00:51:39.723Z,99057.92
2019-01-17T00:53:31.448Z,99061.84
2019-01-17T00:55:31.983Z,99064.27
2019-01-17T00:57:31.640Z,99053.55
2019-01-17T00:59:22.889Z,99044.59
2019-01-17T01:01:16.038Z,99046.10
2019-01-17T01:03:15.690Z,99048.41
2019-01-17T01:05:12.492Z,99044.48
2019-01-17T01:07:10.465Z,99051.27
2019-01-17T01:08:58.564Z,99044.98
2019-01-17T01:10:51.005Z,99054.28
2019-01-17T01:12:41.315Z,99052.62
2019-01-17T01:14:48.389Z,99056.14
2019-01-17T01:16:48.297Z,99054.73
2019-01-17T01:18:40.432Z,99032.15
2019-01-17T01:20:24.653Z,99042.45
2019-01-17T01:22:30.605Z,99040.14
2019-01-17T01:24:33.338Z,99042.95
2019-01-17T01:26:33.211Z,99034.57
2019-01-17T01:28:32.961Z,99043.16
2019-01-17T01:30:31.699Z,99042.41
2019-01-17T01:32:32.765Z,99034.33
2019-01-17T01:34:24.438Z,99027.14
2019-01-17T01:36:18.639Z,99021.10
2019-01-17T01:38:15.655Z,99022.02
2019-01-17T01:40:21.122Z,99024.71
2019-01-17T01:42:11.541Z,99028.13
2019-01-17T01:44:08.041Z,99015.75
2019-01-17T01:46:14.299Z,99013.55
2019-01-17T01:48:07.164Z,99017.70
2019-01-17T01:50:00.194Z,99024.97
2019-01-17T01:51:52.663Z,99012.70
2019-01-17T01:53:27.462Z,99013.02
2019-01-17T01:55:02.276Z,99004.90
2019-01-17T01:56:37.055Z,99005.31
2019-01-17T01:58:12.231Z,99002.86
2019-01-17T01:59:47.343Z,99003.77
2019-01-17T02:01:22.545Z,99011.53
2019-01-17T02:02:57.652Z,99016.20
2019-01-17T02:04:33.057Z,99010.37
2019-01-17T02:06:07.990Z,99032.87
2019-01-17T02:07:43.118Z,99024.03
2019-01-17T02:09:18.348Z,99028.52
2019-01-17T02:10:53.789Z,99022.56
2019-01-17T02:12:28.727Z,99041.02
2019-01-17T02:14:04.715Z,99028.68
2019-01-17T02:15:39.501Z,99022.25
2019-01-17T02:17:14.683Z,99027.55
2019-01-17T02:18:49.841Z,99025.08
2019-01-17T02:20:24.752Z,99022.36
2019-01-17T02:21:59.874Z,99027.02
2019-01-17T02:23:35.246Z,99035.88
2019-01-17T02:25:10.339Z,99030.28
2019-01-17T02:26:46.298Z,99036.46
2019-01-17T02:28:21.192Z,99037.70
2019-01-17T02:29:56.189Z,99049.26
2019-01-17T02:31:30.991Z,99050.16
2019-01-17T02:33:05.904Z,99053.16
2019-01-17T02:34:40.809Z,99065.42
2019-01-17T02:36:15.621Z,99064.57
2019-01-17T02:37:51.040Z,99064.23
2019-01-17T02:39:25.859Z,99061.70
2019-01-17T02:41:01.065Z,99043.55
2019-01-17T02:42:36.033Z,99052.95
2019-01-17T02:44:11.053Z,99049.31
2019-01-17T02:45:46.326Z,99050.09
2019-01-17T02:47:21.131Z,99038.13
2019-01-17T02:48:56.283Z,99038.13
2019-01-17T02:50:31.177Z,99043.72
2019-01-17T02:52:06.124Z,99032.32
2019-01-17T02:53:41.001Z,99030.03
2019-01-17T02:55:15.890Z,99029.62
2019-01-17T02:56:50.750Z,99043.91
2019-01-17T02:58:25.800Z,99002.42
2019-01-17T03:00:00.865Z,99004.71
2019-01-17T03:01:35.681Z,99021.14
2019-01-17T03:03:10.482Z,99026.76
2019-01-17T03:04:45.630Z,99019.15
2019-01-17T03:06:20.975Z,99027.41
2019-01-17T03:07:55.930Z,99025.02
2019-01-17T03:09:31.135Z,99034.41
2019-01-17T03:11:06.137Z,99028.53
2019-01-17T03:12:41.328Z,99023.23
2019-01-17T03:14:16.524Z,99023.85
2019-01-17T03:15:51.373Z,99037.67
2019-01-17T03:17:26.210Z,99042.47
2019-01-17T03:19:01.085Z,99042.83
2019-01-17T03:20:36.349Z,99022.62
2019-01-17T03:22:11.551Z,99028.84
2019-01-17T03:23:46.379Z,99033.44
2019-01-17T03:25:21.329Z,99025.05
2019-01-17T03:26:56.133Z,99027.99
2019-01-17T03:28:31.262Z,99044.29
2019-01-17T03:30:14.186Z,99038.94
2019-01-17T03:31:49.318Z,99037.12
2019-01-17T03:33:24.541Z,99039.73
2019-01-17T03:34:59.413Z,99036.25
2019-01-17T03:36:34.271Z,99034.44
2019-01-17T03:38:09.629Z,99039.01
2019-01-17T03:39:44.385Z,99022.11
2019-01-17T03:41:19.214Z,99026.47
2019-01-17T03:42:54.038Z,99033.03
2019-01-17T03:44:28.826Z,99039.86
2019-01-17T03:46:03.699Z,99034.66
2019-01-17T03:47:38.689Z,99024.14
2019-01-17T03:49:14.127Z,99022.08
2019-01-17T03:50:49.753Z,99020.88
2019-01-17T03:52:24.551Z,99020.23
2019-01-17T03:53:59.773Z,99011.16
2019-01-17T03:55:35.226Z,99014.27
2019-01-17T03:57:10.032Z,99027.28
2019-01-17T03:58:44.873Z,99018.16
2019-01-17T04:00:22.152Z,99022.45
2019-01-17T04:01:57.385Z,99025.56
2019-01-17T04:03:32.521Z,99027.14
2019-01-17T04:05:09.002Z,99030.63
2019-01-17T04:06:43.797Z,99022.75
2019-01-17T04:08:18.931Z,99021.18
2019-01-17T04:09:53.753Z,99022.12
2019-01-17T04:11:28.994Z,99023.98
2019-01-17T04:13:04.119Z,99025.64
2019-01-17T04:14:39.249Z,99005.38
2019-01-17T04:16:14.447Z,99008.66
2019-01-17T04:17:49.674Z,99000.98
2019-01-17T04:19:24.499Z,98994.37
2019-01-17T04:20:59.295Z,99005.59
2019-01-17T04:22:34.116Z,99001.23
2019-01-17T04:24:08.964Z,99006.79
2019-01-17T04:25:43.758Z,98998.48
2019-01-17T04:27:18.963Z,99003.02
2019-01-17T04:28:54.092Z,98999.75
2019-01-17T04:30:29.191Z,98992.25
2019-01-17T04:32:04.064Z,98972.31
2019-01-17T04:33:39.179Z,98969.99
2019-01-17T04:35:14.361Z,98963.28
2019-01-17T04:36:49.437Z,98965.64
2019-01-17T04:38:24.438Z,98962.38
2019-01-17T04:39:59.552Z,98954.27
2019-01-17T04:41:34.360Z,98963.81
2019-01-17T04:43:09.566Z,98945.78
2019-01-17T04:44:44.675Z,98943.31
2019-01-17T04:46:19.455Z,98943.48
2019-01-17T04:47:54.319Z,98936.39
2019-01-17T04:49:29.448Z,98948.24
2019-01-17T04:51:04.442Z,98946.16
2019-01-17T04:52:39.301Z,98950.27
2019-01-17T04:54:14.437Z,98927.22
2019-01-17T04:55:49.481Z,98930.30
2019-01-17T04:57:24.614Z,98940.13
2019-01-17T04:58:59.583Z,98942.19
2019-01-17T05:00:34.645Z,98935.92
2019-01-17T05:02:09.538Z,98937.99
2019-01-17T05:03:44.586Z,98933.02
2019-01-17T05:05:19.848Z,98930.76
2019-01-17T05:06:54.998Z,98944.39
2019-01-17T05:08:30.207Z,98935.88
2019-01-17T05:10:06.456Z,98947.06
2019-01-17T05:11:41.588Z,98947.72
2019-01-17T05:13:16.469Z,98951.03
2019-01-17T05:14:51.233Z,98951.84
2019-01-17T05:16:26.017Z,98948.77
2019-01-17T05:18:01.188Z,98953.97
2019-01-17T05:19:36.035Z,98949.95
2019-01-17T05:21:10.895Z,98943.02
2019-01-17T05:22:46.152Z,98944.20
2019-01-17T05:24:21.820Z,98951.83
2019-01-17T05:25:57.758Z,98952.78
2019-01-17T05:27:32.575Z,98959.66
2019-01-17T05:29:07.409Z,98962.69
2019-01-17T05:30:42.737Z,98966.11
2019-01-17T05:32:17.542Z,98964.45
2019-01-17T05:33:52.371Z,98961.07
2019-01-17T05:35:27.203Z,98960.75
2019-01-17T05:37:02.551Z,98975.52
2019-01-17T05:38:37.387Z,98970.47
2019-01-17T05:40:16.560Z,98979.13
2019-01-17T05:41:51.834Z,98971.69
2019-01-17T05:43:26.700Z,98973.05
2019-01-17T05:45:01.888Z,98984.30
2019-01-17T05:46:36.725Z,98984.30
2019-01-17T05:48:11.534Z,98989.81
2019-01-17T05:49:46.761Z,98990.91
2019-01-17T05:51:21.891Z,98995.09
2019-01-17T05:52:56.762Z,98998.27
2019-01-17T05:54:31.995Z,98996.31
2019-01-17T05:56:06.799Z,99003.22
2019-01-17T05:57:41.602Z,98999.02
2019-01-17T05:59:16.407Z,99010.59
2019-01-17T06:00:51.283Z,99016.38
2019-01-17T06:02:26.189Z,99012.45
2019-01-17T06:04:01.402Z,99017.92
2019-01-17T06:05:37.539Z,99027.99
2019-01-17T06:07:12.799Z,99029.06
2019-01-17T06:08:47.917Z,99019.50
2019-01-17T06:10:23.048Z,99028.39
2019-01-17T06:11:58.174Z,99023.97
2019-01-17T06:13:33.333Z,99026.70
2019-01-17T06:15:08.685Z,99027.00
2019-01-17T06:16:43.555Z,99020.09
2019-01-17T06:18:18.332Z,99029.94
2019-01-17T06:19:53.229Z,99032.97
2019-01-17T06:21:28.252Z,99025.64
2019-01-17T06:23:03.370Z,99030.91
2019-01-17T06:24:38.167Z,99030.33
2019-01-17T06:26:13.843Z,99027.66
2019-01-17T06:27:48.792Z,99025.44
2019-01-17T06:29:24.303Z,99030.83
2019-01-17T06:30:59.140Z,99029.89
2019-01-17T06:32:38.348Z,99029.04
2019-01-17T06:34:14.071Z,99026.16
2019-01-17T06:35:48.834Z,99027.74
2019-01-17T06:37:24.259Z,99027.92
2019-01-17T06:38:59.621Z,99031.97
2019-01-17T06:40:34.919Z,99039.16
2019-01-17T06:42:10.570Z,99036.23
2019-01-17T06:43:45.344Z,99033.66
2019-01-17T06:45:20.417Z,99040.52
2019-01-17T06:46:55.246Z,99033.50
2019-01-17T06:48:30.094Z,99041.00
2019-01-17T06:50:06.931Z,99046.88
2019-01-17T06:51:42.305Z,99041.75
2019-01-17T06:53:17.465Z,99045.55
2019-01-17T06:54:52.633Z,99037.48
2019-01-17T06:56:27.409Z,99035.53
2019-01-17T06:58:02.422Z,99040.48
2019-01-17T06:59:37.523Z,99037.41
2019-01-17T07:01:13.124Z,99038.36
2019-01-17T07:02:48.702Z,99046.35
2019-01-17T07:04:23.502Z,99054.95
2019-01-17T07:05:58.611Z,99048.03
2019-01-17T07:07:33.808Z,99056.16
2019-01-17T07:09:09.768Z,99051.44
2019-01-17T07:10:44.859Z,99054.11
2019-01-17T07:12:20.307Z,99059.57
2019-01-17T07:13:55.076Z,99063.98
2019-01-17T07:15:30.189Z,99060.41
2019-01-17T07:17:05.072Z,99062.95
2019-01-17T07:18:39.848Z,99062.79
2019-01-17T07:20:16.741Z,99060.93
2019-01-17T07:21:52.226Z,99060.60
2019-01-17T07:23:27.157Z,99061.34
2019-01-17T07:25:02.258Z,99054.92
2019-01-17T07:26:37.025Z,99060.61
2019-01-17T07:28:12.129Z,99057.91
2019-01-17T07:29:47.287Z,99052.55
2019-01-17T07:31:22.496Z,99058.23
2019-01-17T07:32:57.576Z,99062.03
2019-01-17T07:34:32.405Z,99054.81
2019-01-17T07:36:07.179Z,99058.45
2019-01-17T07:37:42.158Z,99063.50
2019-01-17T07:39:16.945Z,99050.53
2019-01-17T07:40:52.142Z,99059.62
2019-01-17T07:42:27.248Z,99057.81
2019-01-17T07:44:02.016Z,99061.46
2019-01-17T07:45:37.423Z,99060.80
2019-01-17T07:47:12.549Z,99059.16
2019-01-17T07:48:47.338Z,99070.13
2019-01-17T07:50:22.810Z,99073.46
2019-01-17T07:51:57.696Z,99077.48
2019-01-17T07:53:33.073Z,99077.05
2019-01-17T07:55:09.653Z,99076.47
2019-01-17T07:56:45.385Z,99080.88
2019-01-17T07:58:20.437Z,99073.66
2019-01-17T07:59:55.232Z,99079.80
2019-01-17T08:01:30.365Z,99075.30
2019-01-17T08:03:05.507Z,99066.42
2019-01-17T08:04:40.613Z,99079.97
2019-01-17T08:06:15.468Z,99075.34
2019-01-17T08:07:51.004Z,99073.77
2019-01-17T08:09:26.182Z,99079.31
2019-01-17T08:11:01.561Z,99079.53
2019-01-17T08:12:36.625Z,99077.02
2019-01-17T08:14:12.220Z,99069.24
2019-01-17T08:15:47.030Z,99074.61
2019-01-17T08:17:21.806Z,99075.83
2019-01-17T08:18:56.844Z,99086.16
2019-01-17T08:20:31.712Z,99077.91
2019-01-17T08:22:07.363Z,99078.33
2019-01-17T08:23:42.504Z,99076.20
2019-01-17T08:25:17.449Z,99072.67
2019-01-17T08:26:52.549Z,99085.50
2019-01-17T08:28:27.339Z,99075.30
2019-01-17T08:30:02.099Z,99075.86
2019-01-17T08:31:36.917Z,99078.03
2019-01-17T08:33:11.686Z,99080.33
2019-01-17T08:34:46.781Z,99074.17
2019-01-17T08:36:22.009Z,99080.23
2019-01-17T08:37:57.045Z,99086.68
2019-01-17T08:39:32.462Z,99078.41
2019-01-17T08:41:07.351Z,99081.01
2019-01-17T08:42:42.148Z,99079.48
2019-01-17T08:44:16.886Z,99086.62
2019-01-17T08:45:52.340Z,99081.91
2019-01-17T08:47:27.508Z,99089.41
2019-01-17T08:49:02.359Z,99083.06
2019-01-17T08:50:37.350Z,99085.63
2019-01-17T08:52:12.595Z,99089.50
2019-01-17T08:53:47.370Z,99094.48
2019-01-17T08:55:22.154Z,99093.41
2019-01-17T08:56:57.462Z,99092.73
2019-01-17T08:58:32.248Z,99098.33
2019-01-17T09:00:11.191Z,99096.94
2019-01-17T09:01:46.340Z,99095.59
2019-01-17T09:03:21.466Z,99102.05
2019-01-17T09:04:56.252Z,99102.72
2019-01-17T09:06:31.381Z,99108.67
2019-01-17T09:08:06.757Z,99097.87
2019-01-17T09:09:41.549Z,99099.50
2019-01-17T09:11:16.704Z,99107.52
2019-01-17T09:12:51.978Z,99107.76
2019-01-17T09:14:26.768Z,99109.41
2019-01-17T09:16:02.397Z,99107.64
2019-01-17T09:17:37.537Z,99099.64
2019-01-17T09:19:12.685Z,99107.30
2019-01-17T09:20:47.458Z,99106.73
2019-01-17T09:22:22.628Z,99108.39
2019-01-17T09:23:57.748Z,99099.90
2019-01-17T09:25:32.528Z,99105.05
2019-01-17T09:27:07.601Z,99101.33
2019-01-17T09:28:42.445Z,99092.95
2019-01-17T09:30:18.599Z,99091.92
2019-01-17T09:31:53.448Z,99082.52
2019-01-17T09:33:28.211Z,99084.28
2019-01-17T09:35:03.150Z,99086.91
2019-01-17T09:36:38.005Z,99089.30
2019-01-17T09:38:12.769Z,99083.02
2019-01-17T09:39:47.563Z,99076.84
2019-01-17T09:41:22.414Z,99075.04
2019-01-17T09:42:57.840Z,99081.15
2019-01-17T09:44:33.044Z,99085.50
2019-01-17T09:46:07.817Z,99083.73
2019-01-17T09:47:43.174Z,99086.32
2019-01-17T09:49:17.945Z,99084.19
2019-01-17T09:50:52.733Z,99083.29
2019-01-17T09:52:27.841Z,99083.06
2019-01-17T09:54:02.722Z,99091.48
2019-01-17T09:55:37.531Z,99082.08
2019-01-17T09:57:12.828Z,99092.52
2019-01-17T09:58:47.598Z,99084.77
2019-01-17T10:00:30.965Z,99083.34
2019-01-17T10:02:05.879Z,99087.94
2019-01-17T10:03:40.939Z,99087.61
2019-01-17T10:05:16.459Z,99088.10
2019-01-17T10:06:51.595Z,99087.37
2019-01-17T10:08:26.359Z,99081.23
2019-01-17T10:10:01.754Z,99086.80
2019-01-17T10:11:36.621Z,99087.91
2019-01-17T10:13:11.709Z,99077.55
2019-01-17T10:14:46.501Z,99085.80
2019-01-17T10:17:30.426Z,99088.08
2019-01-17T10:19:47.489Z,99084.00
2019-01-17T10:22:13.237Z,99079.45
2019-01-17T10:24:41.582Z,99075.77
2019-01-17T10:26:34.272Z,99073.39
2019-01-17T10:28:51.549Z,99076.05
2019-01-17T10:31:28.974Z,99066.50
2019-01-17T10:33:21.503Z,99070.45
2019-01-17T10:35:48.743Z,99066.02
2019-01-17T10:38:28.952Z,99070.13
2019-01-17T10:40:48.656Z,99063.59
2019-01-17T10:43:21.933Z,99059.55
2019-01-17T10:45:29.483Z,99043.84
2019-01-17T10:48:13.019Z,99038.92
2019-01-17T10:50:24.659Z,99048.93
2019-01-17T10:53:09.632Z,99047.73
2019-01-17T10:55:44.660Z,99044.19
2019-01-17T10:58:00.814Z,99035.73
2019-01-17T10:59:43.977Z,99040.47
2019-01-17T11:01:56.244Z,99041.91
2019-01-17T11:04:15.158Z,99033.74
2019-01-17T11:06:29.521Z,99033.95
2019-01-17T11:08:21.418Z,99033.64
2019-01-17T11:10:36.916Z,99027.64
2019-01-17T11:12:48.669Z,99018.27
2019-01-17T11:14:41.443Z,99014.95
2019-01-17T11:16:43.169Z,99018.73
2019-01-17T11:19:23.644Z,99000.95
2019-01-17T11:22:13.444Z,99022.11
2019-01-17T11:24:18.271Z,99010.44
2019-01-17T11:26:34.578Z,99006.80
2019-01-17T11:28:42.622Z,99006.57
2019-01-17T11:31:03.746Z,99010.85
2019-01-17T11:33:04.647Z,99004.33
2019-01-17T11:35:39.025Z,99000.02
2019-01-17T11:37:44.647Z,99004.33
2019-01-17T11:40:05.316Z,99013.19
2019-01-17T11:42:40.780Z,99012.16
2019-01-17T11:44:44.620Z,99005.47
2019-01-17T11:47:21.671Z,98994.37
2019-01-17T11:49:59.523Z,98994.98
2019-01-17T11:52:12.953Z,98994.01
2019-01-17T11:54:23.770Z,98985.52
2019-01-17T11:56:33.029Z,98976.77
2019-01-17T11:58:44.225Z,98962.34
2019-01-17T12:01:10.158Z,98957.71
2019-01-17T12:03:23.368Z,98968.82
2019-01-17T12:04:56.270Z,98976.25
2019-01-17T12:06:31.127Z,98988.00
2019-01-17T12:08:05.994Z,98994.44
2019-01-17T12:09:41.091Z,98997.69
2019-01-17T12:11:15.877Z,98981.44
2019-01-17T12:12:50.975Z,98975.93
2019-01-17T12:14:25.926Z,98983.83
2019-01-17T12:16:01.269Z,98974.84
2019-01-17T12:17:36.178Z,98974.44
2019-01-17T12:19:11.242Z,98968.92
2019-01-17T12:20:46.349Z,98971.51
2019-01-17T12:22:21.506Z,98968.88
2019-01-17T12:23:56.383Z,98969.08
2019-01-17T12:25:31.484Z,98969.72
2019-01-17T12:27:06.358Z,98973.55
2019-01-17T12:28:41.187Z,98966.90
2019-01-17T12:30:16.958Z,98977.84
2019-01-17T12:31:51.761Z,98971.55
2019-01-17T12:33:27.521Z,98970.34
2019-01-17T12:35:02.330Z,98973.38
2019-01-17T12:36:37.573Z,98976.28
2019-01-17T12:38:12.387Z,98975.42
2019-01-17T12:39:47.198Z,98969.29
2019-01-17T12:41:22.584Z,98972.66
2019-01-17T12:42:57.894Z,98966.74
2019-01-17T12:44:32.719Z,98970.39
2019-01-17T12:46:07.567Z,98960.96
2019-01-17T12:47:43.065Z,98954.85
2019-01-17T12:49:17.873Z,98962.98
2019-01-17T12:50:53.537Z,98963.22
2019-01-17T12:52:28.343Z,98961.45
2019-01-17T12:54:03.203Z,98950.33
2019-01-17T12:55:38.122Z,98952.09
2019-01-17T12:57:13.244Z,98944.53
2019-01-17T12:58:48.989Z,98944.55
2019-01-17T13:00:23.952Z,98953.47
2019-01-17T13:01:59.063Z,98950.58
2019-01-17T13:03:34.482Z,98940.77
2019-01-17T13:05:09.854Z,98937.61
2019-01-17T13:06:44.698Z,98940.45
2019-01-17T13:08:19.488Z,98941.30
2019-01-17T13:09:54.810Z,98943.66
2019-01-17T13:11:29.922Z,98940.63
2019-01-17T13:13:04.743Z,98934.75
2019-01-17T13:14:39.543Z,98929.92
2019-01-17T13:16:14.401Z,98930.96
2019-01-17T13:17:49.303Z,98935.66
2019-01-17T13:19:24.098Z,98930.52
2019-01-17T13:20:59.386Z,98935.17
2019-01-17T13:22:34.234Z,98933.86
2019-01-17T13:24:09.155Z,98931.98
2019-01-17T13:25:44.280Z,98925.41
2019-01-17T13:27:19.149Z,98925.56
2019-01-17T13:28:54.071Z,98924.48
2019-01-17T13:30:29.122Z,98927.20
2019-01-17T13:32:04.334Z,98918.59
2019-01-17T13:33:39.412Z,98927.57
2019-01-17T13:35:14.874Z,98921.63
2019-01-17T13:36:49.667Z,98920.30
2019-01-17T13:38:24.903Z,98929.02
2019-01-17T13:40:00.016Z,98925.58
2019-01-17T13:41:35.460Z,98927.80
2019-01-17T13:43:10.281Z,98932.48
2019-01-17T13:44:45.132Z,98928.94
2019-01-17T13:46:20.340Z,98937.59
2019-01-17T13:47:55.200Z,98930.08
2019-01-17T13:49:30.005Z,98936.84
2019-01-17T13:51:04.842Z,98936.13
2019-01-17T13:52:40.040Z,98937.66
2019-01-17T13:54:14.899Z,98930.03
2019-01-17T13:55:49.720Z,98922.27
2019-01-17T13:57:24.511Z,98923.95
2019-01-17T13:58:59.304Z,98920.48
2019-01-17T14:00:34.263Z,98929.76
2019-01-17T14:02:09.599Z,98933.02
2019-01-17T14:03:45.032Z,98910.94
2019-01-17T14:05:20.367Z,98915.67
2019-01-17T14:06:55.175Z,98906.97
2019-01-17T14:08:30.655Z,98919.17
2019-01-17T14:10:07.566Z,98917.93
2019-01-17T14:11:42.537Z,98926.42
2019-01-17T14:13:17.679Z,98927.70
2019-01-17T14:14:52.466Z,98928.45
2019-01-17T14:16:28.286Z,98930.48
2019-01-17T14:18:03.090Z,98927.95
2019-01-17T14:19:37.928Z,98929.36
2019-01-17T14:21:12.952Z,98919.77
2019-01-17T14:22:48.017Z,98924.13
2019-01-17T14:24:22.949Z,98923.44
2019-01-17T14:25:58.099Z,98924.69
2019-01-17T14:27:33.221Z,98921.44
2019-01-17T14:29:08.450Z,98925.75
2019-01-17T14:30:43.381Z,98917.66
2019-01-17T14:32:18.537Z,98918.73
2019-01-17T14:33:53.376Z,98919.20
2019-01-17T14:35:28.389Z,98917.37
2019-01-17T14:37:03.596Z,98912.71
2019-01-17T14:38:38.576Z,98912.35
2019-01-17T14:40:14.685Z,98908.38
2019-01-17T14:41:49.489Z,98907.94
2019-01-17T14:43:24.870Z,98911.30
2019-01-17T14:44:59.963Z,98905.10
2019-01-17T14:46:35.197Z,98906.25
2019-01-17T14:48:10.427Z,98907.38
2019-01-17T14:49:45.283Z,98905.82
2019-01-17T14:51:20.114Z,98901.36
2019-01-17T14:52:56.122Z,98902.61
2019-01-17T14:54:31.679Z,98905.02
2019-01-17T14:56:06.904Z,98895.39
2019-01-17T14:57:42.540Z,98903.43
2019-01-17T14:59:17.471Z,98910.58
2019-01-17T15:00:52.659Z,98907.69
2019-01-17T15:02:28.056Z,98907.28
2019-01-17T15:04:02.948Z,98900.02
2019-01-17T15:05:37.756Z,98894.45
2019-01-17T15:07:13.064Z,98895.89
2019-01-17T15:08:48.686Z,98898.47
2019-01-17T15:10:31.386Z,98896.34
2019-01-17T15:12:06.654Z,98898.06
2019-01-17T15:13:42.055Z,98898.88
2019-01-17T15:15:17.478Z,98898.48
2019-01-17T15:16:52.918Z,98892.40
2019-01-17T15:18:27.723Z,98887.74
2019-01-17T15:20:03.896Z,98894.80
2019-01-17T15:21:39.456Z,98900.26
2019-01-17T15:23:15.183Z,98897.16
2019-01-17T15:24:50.039Z,98897.66
2019-01-17T15:26:25.232Z,98895.45
2019-01-17T15:28:00.060Z,98893.61
2019-01-17T15:29:35.396Z,98902.67
2019-01-17T15:31:10.471Z,98898.84
2019-01-17T15:32:45.424Z,98897.61
2019-01-17T15:34:20.341Z,98895.96
2019-01-17T15:35:55.601Z,98896.45
2019-01-17T15:37:31.151Z,98897.66
2019-01-17T15:39:09.835Z,98905.52
2019-01-17T15:40:44.700Z,98896.42
2019-01-17T15:42:19.921Z,98894.84
2019-01-17T15:43:55.622Z,98900.49
2019-01-17T15:45:30.551Z,98907.28
2019-01-17T15:47:05.735Z,98910.53
2019-01-17T15:48:41.251Z,98910.67
2019-01-17T15:50:16.903Z,98916.48
2019-01-17T15:51:52.088Z,98914.84
2019-01-17T15:53:27.301Z,98904.86
2019-01-17T15:55:02.579Z,98904.52
2019-01-17T15:56:37.769Z,98899.95
2019-01-17T15:58:12.666Z,98905.28
2019-01-17T15:59:48.617Z,98906.83
2019-01-17T16:01:23.515Z,98907.12
2019-01-17T16:02:59.327Z,98904.71
2019-01-17T16:04:34.856Z,98905.44
2019-01-17T16:06:09.934Z,98901.53
2019-01-17T16:07:45.029Z,98903.34
2019-01-17T16:09:20.396Z,98907.02
2019-01-17T16:10:55.640Z,98910.02
2019-01-17T16:12:30.498Z,98907.24
2019-01-17T16:14:05.708Z,98910.72
2019-01-17T16:15:42.202Z,98910.61
2019-01-17T16:17:17.393Z,98913.22
2019-01-17T16:18:52.512Z,98914.64
2019-01-17T16:20:27.286Z,98903.19
2019-01-17T16:22:02.086Z,98904.23
2019-01-17T16:23:36.849Z,98914.56
2019-01-17T16:25:13.869Z,98899.07
2019-01-17T16:26:48.985Z,98900.62
2019-01-17T16:28:23.833Z,98904.95
2019-01-17T16:29:58.605Z,98898.14
2019-01-17T16:31:33.657Z,98897.76
2019-01-17T16:33:08.788Z,98897.13
2019-01-17T16:34:43.556Z,98886.69
2019-01-17T16:36:18.640Z,98896.60
2019-01-17T16:37:53.604Z,98900.48
2019-01-17T16:39:29.140Z,98893.58
2019-01-17T16:41:04.153Z,98898.77
2019-01-17T16:42:39.310Z,98901.48
2019-01-17T16:44:14.165Z,98897.63
2019-01-17T16:45:48.928Z,98893.73
2019-01-17T16:47:24.349Z,98893.47
2019-01-17T16:48:59.140Z,98891.42
2019-01-17T16:50:33.994Z,98896.52
2019-01-17T16:52:08.750Z,98896.73
2019-01-17T16:53:43.528Z,98899.83
2019-01-17T16:55:18.790Z,98899.02
2019-01-17T16:56:53.867Z,98898.09
2019-01-17T16:58:29.134Z,98894.76
2019-01-17T17:00:05.493Z,98894.31
2019-01-17T17:01:40.265Z,98893.27
2019-01-17T17:03:15.450Z,98896.27
2019-01-17T17:04:50.531Z,98896.09
2019-01-17T17:06:25.436Z,98898.65
2019-01-17T17:08:00.392Z,98912.80
2019-01-17T17:09:35.468Z,98908.41
2019-01-17T17:11:10.587Z,98909.15
2019-01-17T17:12:45.629Z,98910.36
2019-01-17T17:14:20.453Z,98907.91
2019-01-17T17:15:55.579Z,98911.70
2019-01-17T17:17:30.369Z,98921.56
2019-01-17T17:19:05.142Z,98913.16
2019-01-17T17:20:40.345Z,98917.31
2019-01-17T17:22:15.544Z,98917.29
2019-01-17T17:23:50.312Z,98916.31
2019-01-17T17:25:25.734Z,98916.80
2019-01-17T17:27:00.663Z,98909.16
2019-01-17T17:28:35.731Z,98912.11
2019-01-17T17:30:17.584Z,98909.18
2019-01-17T17:31:52.392Z,98906.92
2019-01-17T17:33:27.447Z,98902.36
2019-01-17T17:35:02.213Z,98898.67
2019-01-17T17:36:37.382Z,98898.91
2019-01-17T17:38:12.616Z,98899.76
2019-01-17T17:39:47.860Z,98885.11
2019-01-17T17:41:22.735Z,98893.95
2019-01-17T17:42:57.655Z,98890.80
2019-01-17T17:44:32.435Z,98896.13
2019-01-17T17:46:07.658Z,98896.91
2019-01-17T17:47:42.508Z,98897.98
2019-01-17T17:49:17.913Z,98907.46
2019-01-17T17:50:52.691Z,98905.72
2019-01-17T17:52:28.029Z,98902.81
2019-01-17T17:54:03.096Z,98902.03
2019-01-17T17:55:37.940Z,98896.41
2019-01-17T17:57:12.730Z,98888.43
2019-01-17T17:58:47.769Z,98891.08
2019-01-17T18:00:35.920Z,98900.81
2019-01-17T18:02:17.378Z,98905.23
2019-01-17T18:03:52.195Z,98907.41
2019-01-17T18:05:27.752Z,98898.48
2019-01-17T18:07:02.882Z,98906.97
2019-01-17T18:08:38.035Z,98900.77
2019-01-17T18:10:15.036Z,98901.59
2019-01-17T18:11:50.116Z,98908.73
2019-01-17T18:13:25.477Z,98901.39
2019-01-17T18:15:00.903Z,98897.80
2019-01-17T18:16:35.704Z,98902.77
2019-01-17T18:18:10.577Z,98904.01
2019-01-17T18:19:45.342Z,98907.65
2019-01-17T18:21:20.608Z,98910.37
2019-01-17T18:22:55.720Z,98913.36
2019-01-17T18:24:30.847Z,98906.52
2019-01-17T18:26:06.290Z,98920.66
2019-01-17T18:27:41.131Z,98925.25
2019-01-17T18:29:16.213Z,98911.45
2019-01-17T18:30:51.032Z,98913.77
2019-01-17T18:32:25.895Z,98910.90
2019-01-17T18:34:01.157Z,98902.61
2019-01-17T18:35:36.403Z,98909.37
2019-01-17T18:37:11.485Z,98918.02
2019-01-17T18:38:46.429Z,98911.82
2019-01-17T18:40:21.646Z,98919.25
2019-01-17T18:41:56.557Z,98906.58
2019-01-17T18:43:31.521Z,98915.06
2019-01-17T18:45:09.994Z,98916.95
2019-01-17T18:46:45.132Z,98911.55
2019-01-17T18:48:20.368Z,98924.36
2019-01-17T18:49:56.011Z,98938.47
2019-01-17T18:51:31.242Z,98941.50
2019-01-17T18:53:06.685Z,98943.61
2019-01-17T18:54:41.925Z,98943.92
2019-01-17T18:56:17.046Z,98944.66
2019-01-17T18:57:52.184Z,98947.84
2019-01-17T18:59:27.112Z,98940.77
2019-01-17T19:01:01.978Z,98943.84
2019-01-17T19:02:36.826Z,98950.36
2019-01-17T19:04:11.626Z,98961.16
2019-01-17T19:05:46.417Z,98953.28
2019-01-17T19:07:21.188Z,98956.20
2019-01-17T19:08:56.054Z,98968.24
2019-01-17T19:10:31.193Z,98960.70
2019-01-17T19:12:06.126Z,98968.22
2019-01-17T19:13:41.221Z,98975.05
2019-01-17T19:15:19.974Z,98981.86
2019-01-17T19:16:55.076Z,98986.01
2019-01-17T19:18:29.833Z,98990.73
2019-01-17T19:20:07.074Z,98997.71
2019-01-17T19:21:42.248Z,98998.11
2019-01-17T19:23:17.329Z,98997.02
2019-01-17T19:24:52.458Z,99003.67
2019-01-17T19:26:27.899Z,99025.94
2019-01-17T19:28:02.676Z,99037.56
2019-01-17T19:29:38.472Z,99053.11
2019-01-17T19:31:13.264Z,99064.66